createdAt,value
2023-02-14T00:01:23.161Z,3.80
2023-02-14T00:03:50.748Z,3.80
2023-02-14T00:06:18.473Z,3.80
2023-02-14T00:08:46.115Z,3.70
2023-02-14T00:11:15.046Z,3.60
2023-02-14T00:14:05.390Z,3.60
2023-02-14T00:16:33.226Z,3.50
2023-02-14T00:19:03.500Z,3.50
2023-02-14T00:21:36.354Z,3.40
2023-02-14T00:24:06.638Z,3.40
2023-02-14T00:26:34.416Z,3.30
2023-02-14T00:29:02.064Z,3.30
2023-02-14T00:31:29.881Z,3.30
2023-02-14T00:33:57.581Z,3.40
2023-02-14T00:36:25.572Z,3.40
2023-02-14T00:38:53.434Z,3.40
2023-02-14T00:41:21.448Z,3.40
2023-02-14T00:43:50.749Z,3.40
2023-02-14T00:46:19.241Z,3.40
2023-02-14T00:48:46.997Z,3.40
2023-02-14T00:51:15.323Z,3.40
2023-02-14T00:53:44.462Z,3.30
2023-02-14T00:56:12.865Z,3.30
2023-02-14T00:58:41.038Z,3.30
2023-02-14T01:01:09.477Z,3.30
2023-02-14T01:03:37.378Z,3.20
2023-02-14T01:06:06.597Z,3.20
2023-02-14T01:08:34.403Z,3.10
2023-02-14T01:11:08.797Z,3.10
2023-02-14T01:13:36.505Z,3.10
2023-02-14T01:16:09.701Z,3.00
2023-02-14T01:18:38.142Z,2.90
2023-02-14T01:21:19.030Z,2.80
2023-02-14T01:23:48.400Z,2.70
2023-02-14T01:26:16.854Z,2.60
2023-02-14T01:28:45.209Z,2.50
2023-02-14T01:31:15.907Z,2.50
2023-02-14T01:33:45.340Z,2.40
2023-02-14T01:36:22.885Z,2.40
2023-02-14T01:38:55.756Z,2.30
2023-02-14T01:41:25.533Z,2.20
2023-02-14T01:44:26.627Z,2.10
2023-02-14T01:46:55.118Z,2.10
2023-02-14T01:49:33.524Z,2.00
2023-02-14T01:52:10.627Z,2.00
2023-02-14T01:54:42.731Z,1.90
2023-02-14T01:57:14.009Z,1.90
2023-02-14T01:59:48.998Z,1.90
2023-02-14T02:02:23.530Z,1.90
2023-02-14T02:04:55.649Z,1.80
2023-02-14T02:07:27.401Z,1.70
2023-02-14T02:10:03.025Z,1.70
2023-02-14T02:12:31.125Z,1.70
2023-02-14T02:15:00.142Z,1.70
2023-02-14T02:18:17.067Z,1.70
2023-02-14T02:21:18.606Z,1.70
2023-02-14T02:23:58.073Z,1.70
2023-02-14T02:26:43.391Z,1.70
2023-02-14T02:29:57.865Z,1.70
2023-02-14T02:32:56.485Z,1.80
2023-02-14T02:35:35.854Z,1.80
2023-02-14T02:38:36.265Z,1.90
2023-02-14T02:41:12.716Z,2.00
2023-02-14T02:44:17.910Z,2.00
2023-02-14T02:47:01.356Z,2.00
2023-02-14T02:50:10.117Z,2.10
2023-02-14T02:52:59.445Z,2.00
2023-02-14T02:56:01.259Z,1.90
2023-02-14T02:58:40.238Z,1.90
2023-02-14T03:01:15.344Z,1.80
2023-02-14T03:04:07.183Z,1.80
2023-02-14T03:06:36.390Z,1.80
2023-02-14T03:09:34.821Z,1.80
2023-02-14T03:12:33.327Z,1.80
2023-02-14T03:15:30.824Z,1.70
2023-02-14T03:17:58.360Z,1.80
2023-02-14T03:20:55.138Z,1.80
2023-02-14T03:24:00.214Z,1.90
2023-02-14T03:26:39.707Z,1.90
2023-02-14T03:29:26.105Z,2.00
2023-02-14T03:32:28.382Z,2.20
2023-02-14T03:35:20.460Z,2.20
2023-02-14T03:37:57.809Z,2.30
2023-02-14T03:40:49.408Z,2.30
2023-02-14T03:43:47.259Z,2.40
2023-02-14T03:46:19.776Z,2.50
2023-02-14T03:48:50.411Z,2.60
2023-02-14T03:51:19.699Z,2.60
2023-02-14T03:53:51.751Z,2.70
2023-02-14T03:57:12.730Z,2.70
2023-02-14T03:59:41.379Z,2.80
2023-02-14T04:02:22.012Z,2.80
2023-02-14T04:04:51.686Z,2.80
2023-02-14T04:07:21.927Z,2.80
2023-02-14T04:09:49.708Z,2.80
2023-02-14T04:12:26.577Z,2.90
2023-02-14T04:15:00.011Z,2.90
2023-02-14T04:17:45.879Z,2.80
2023-02-14T04:20:13.534Z,2.90
2023-02-14T04:22:41.045Z,2.90
2023-02-14T04:25:08.640Z,2.90
2023-02-14T04:27:36.125Z,2.90
2023-02-14T04:30:03.993Z,2.90
2023-02-14T04:32:31.586Z,2.90
2023-02-14T04:34:59.248Z,2.90
2023-02-14T04:37:26.995Z,2.90
2023-02-14T04:39:54.559Z,2.90
2023-02-14T04:42:22.067Z,2.90
2023-02-14T04:44:49.696Z,2.90
2023-02-14T04:47:17.304Z,2.90
2023-02-14T04:49:45.058Z,2.90
2023-02-14T04:52:13.193Z,2.90
2023-02-14T04:54:40.736Z,2.90
2023-02-14T04:57:08.280Z,2.90
2023-02-14T04:59:35.867Z,2.90
2023-02-14T05:02:03.464Z,2.90
2023-02-14T05:04:31.090Z,2.90
2023-02-14T05:06:58.582Z,2.90
2023-02-14T05:09:26.250Z,2.90
2023-02-14T05:11:53.810Z,2.90
2023-02-14T05:14:21.531Z,2.90
2023-02-14T05:16:49.036Z,3.00
2023-02-14T05:19:16.681Z,3.00
2023-02-14T05:21:44.217Z,3.00
2023-02-14T05:24:11.748Z,3.00
2023-02-14T05:26:39.313Z,3.00
2023-02-14T05:29:07.381Z,3.00
2023-02-14T05:31:35.140Z,3.00
2023-02-14T05:34:02.913Z,3.00
2023-02-14T05:36:30.916Z,3.00
2023-02-14T05:38:58.547Z,2.90
2023-02-14T05:41:26.053Z,3.00
2023-02-14T05:43:53.646Z,3.00
2023-02-14T05:46:21.246Z,3.00
2023-02-14T05:48:48.879Z,3.00
2023-02-14T05:51:16.534Z,2.90
2023-02-14T05:53:44.121Z,2.90
2023-02-14T05:56:11.846Z,2.90
2023-02-14T05:58:39.422Z,2.80
2023-02-14T06:01:07.043Z,2.80
2023-02-14T06:03:35.754Z,2.80
2023-02-14T06:06:03.434Z,2.80
2023-02-14T06:08:31.248Z,2.80
2023-02-14T06:10:59.388Z,2.80
2023-02-14T06:13:27.131Z,2.80
2023-02-14T06:15:54.718Z,2.80
2023-02-14T06:18:22.457Z,2.70
2023-02-14T06:20:49.954Z,2.70
2023-02-14T06:23:17.518Z,2.80
2023-02-14T06:25:45.031Z,2.70
2023-02-14T06:28:12.614Z,2.70
2023-02-14T06:30:40.298Z,2.80
2023-02-14T06:33:08.150Z,2.80
2023-02-14T06:35:35.748Z,2.80
2023-02-14T06:38:03.356Z,2.80
2023-02-14T06:40:30.876Z,2.80
2023-02-14T06:42:58.447Z,2.80
2023-02-14T06:45:26.057Z,2.80
2023-02-14T06:47:53.595Z,2.80
2023-02-14T06:50:21.157Z,2.80
2023-02-14T06:52:48.715Z,2.80
2023-02-14T06:55:16.566Z,2.70
2023-02-14T06:57:45.757Z,2.70
2023-02-14T07:00:14.890Z,2.70
2023-02-14T07:02:42.698Z,2.70
2023-02-14T07:05:10.428Z,2.70
2023-02-14T07:07:38.093Z,2.70
2023-02-14T07:10:06.234Z,2.80
2023-02-14T07:12:35.028Z,2.80
2023-02-14T07:15:02.561Z,2.80
2023-02-14T07:17:30.148Z,2.70
2023-02-14T07:19:57.715Z,2.80
2023-02-14T07:22:25.283Z,2.80
2023-02-14T07:24:52.826Z,2.80
2023-02-14T07:27:20.396Z,2.80
2023-02-14T07:29:48.010Z,2.80
2023-02-14T07:32:15.770Z,2.90
2023-02-14T07:34:43.562Z,2.90
2023-02-14T07:37:11.246Z,2.90
2023-02-14T07:39:38.839Z,2.90
2023-02-14T07:42:08.205Z,2.90
2023-02-14T07:44:36.174Z,2.90
2023-02-14T07:47:03.779Z,3.00
2023-02-14T07:49:31.436Z,3.00
2023-02-14T07:51:59.186Z,3.00
2023-02-14T07:54:26.764Z,3.00
2023-02-14T07:56:54.410Z,3.00
2023-02-14T07:59:24.407Z,3.10
2023-02-14T08:01:53.288Z,3.00
2023-02-14T08:04:21.457Z,3.10
2023-02-14T08:06:49.080Z,3.10
2023-02-14T08:09:24.683Z,3.10
2023-02-14T08:12:16.032Z,3.10
2023-02-14T08:14:44.437Z,3.10
2023-02-14T08:17:13.852Z,3.20
2023-02-14T08:19:41.483Z,3.20
2023-02-14T08:22:09.565Z,3.20
2023-02-14T08:24:37.354Z,3.20
2023-02-14T08:27:04.977Z,3.20
2023-02-14T08:29:32.511Z,3.20
2023-02-14T08:32:00.570Z,3.20
2023-02-14T08:34:28.387Z,3.20
2023-02-14T08:36:55.977Z,3.20
2023-02-14T08:39:23.693Z,3.20
2023-02-14T08:44:19.263Z,3.20
2023-02-14T08:46:46.877Z,3.20
2023-02-14T08:49:14.579Z,3.20
2023-02-14T08:51:42.428Z,3.10
2023-02-14T08:54:09.982Z,3.20
2023-02-14T08:56:38.501Z,3.10
2023-02-14T08:59:06.242Z,3.20
2023-02-14T09:01:34.070Z,3.20
2023-02-14T09:04:02.429Z,3.20
2023-02-14T09:08:58.017Z,3.20
2023-02-14T09:11:25.767Z,3.30
2023-02-14T09:13:53.904Z,3.30
2023-02-14T09:16:22.722Z,3.40
2023-02-14T09:18:51.376Z,3.40
2023-02-14T09:21:21.828Z,3.30
2023-02-14T09:23:49.732Z,3.30
2023-02-14T09:26:18.159Z,3.40
2023-02-14T09:28:46.444Z,3.30
2023-02-14T09:31:18.737Z,3.30
2023-02-14T09:33:47.883Z,3.40
2023-02-14T09:36:15.763Z,3.40
2023-02-14T09:38:43.369Z,3.40
2023-02-14T09:41:25.507Z,3.40
2023-02-14T09:44:04.017Z,3.40
2023-02-14T09:46:41.653Z,3.50
2023-02-14T09:49:15.490Z,3.50
2023-02-14T09:51:51.348Z,3.50
2023-02-14T09:54:27.527Z,3.60
2023-02-14T09:56:59.256Z,3.60
2023-02-14T09:59:43.963Z,3.70
2023-02-14T10:02:15.558Z,3.70
2023-02-14T10:05:06.597Z,3.80
2023-02-14T10:07:43.634Z,3.80
2023-02-14T10:10:25.339Z,3.80
2023-02-14T10:13:06.601Z,3.80
2023-02-14T10:15:45.140Z,3.80
2023-02-14T10:18:15.537Z,3.90
2023-02-14T10:20:46.948Z,3.90
2023-02-14T10:23:29.146Z,4.00
2023-02-14T10:26:02.275Z,4.00
2023-02-14T10:28:37.412Z,4.10
2023-02-14T10:31:26.167Z,4.10
2023-02-14T10:34:04.702Z,4.10
2023-02-14T10:37:13.810Z,4.10
2023-02-14T10:40:25.989Z,4.20
2023-02-14T10:43:01.216Z,4.30
2023-02-14T10:46:13.771Z,4.30
2023-02-14T10:49:00.316Z,4.40
2023-02-14T10:51:34.070Z,4.50
2023-02-14T10:54:20.227Z,4.50
2023-02-14T10:57:00.478Z,4.50
2023-02-14T10:59:54.057Z,4.60
2023-02-14T11:02:25.718Z,4.60
2023-02-14T11:04:54.904Z,4.60
2023-02-14T11:07:22.948Z,4.70
2023-02-14T11:09:50.558Z,4.70
2023-02-14T11:12:39.534Z,4.80
2023-02-14T11:15:21.815Z,4.80
2023-02-14T11:17:49.590Z,4.90
2023-02-14T11:20:27.905Z,4.90
2023-02-14T11:22:55.768Z,5.00
2023-02-14T11:25:25.212Z,5.10
2023-02-14T11:28:05.143Z,5.10
2023-02-14T11:30:41.071Z,5.20
2023-02-14T11:33:33.917Z,5.20
2023-02-14T11:36:03.761Z,5.30
2023-02-14T11:38:35.791Z,5.30
2023-02-14T11:41:05.194Z,5.40
2023-02-14T11:43:43.760Z,5.10
2023-02-14T11:46:14.899Z,5.70
2023-02-14T11:48:57.718Z,5.90
2023-02-14T11:51:29.941Z,6.00
2023-02-14T11:54:03.257Z,6.00
2023-02-14T11:56:52.111Z,6.00
2023-02-14T11:59:31.320Z,6.00
2023-02-14T12:02:03.027Z,6.00
2023-02-14T12:04:45.698Z,6.20
2023-02-14T12:07:25.273Z,6.20
2023-02-14T12:10:10.708Z,6.30
2023-02-14T12:12:48.147Z,6.30
2023-02-14T12:15:29.389Z,6.40
2023-02-14T12:18:05.162Z,6.50
2023-02-14T12:20:38.534Z,6.50
2023-02-14T12:23:16.881Z,6.60
2023-02-14T12:25:54.420Z,6.70
2023-02-14T12:28:31.512Z,6.80
2023-02-14T12:30:59.581Z,6.90
2023-02-14T12:33:27.421Z,7.20
2023-02-14T12:36:26.800Z,7.50
2023-02-14T12:39:31.643Z,7.70
2023-02-14T12:42:02.978Z,7.80
2023-02-14T12:44:43.556Z,7.90
2023-02-14T12:47:42.823Z,8.10
2023-02-14T12:50:25.437Z,8.20
2023-02-14T12:53:14.197Z,8.30
2023-02-14T12:55:50.534Z,8.40
2023-02-14T12:58:36.028Z,8.40
2023-02-14T13:01:28.435Z,8.30
2023-02-14T13:04:19.840Z,8.00
2023-02-14T13:07:05.662Z,7.90
2023-02-14T13:09:56.580Z,7.80
2023-02-14T13:12:51.736Z,7.70
2023-02-14T13:15:35.668Z,7.70
2023-02-14T13:18:25.869Z,7.80
2023-02-14T13:21:00.244Z,7.90
2023-02-14T13:23:35.622Z,7.90
2023-02-14T13:26:09.979Z,8.00
2023-02-14T13:28:44.377Z,8.10
2023-02-14T13:31:12.322Z,8.20
2023-02-14T13:33:45.217Z,8.40
2023-02-14T13:36:14.503Z,8.70
2023-02-14T13:38:52.042Z,8.90
2023-02-14T13:41:21.088Z,9.10
2023-02-14T13:43:56.407Z,9.40
2023-02-14T13:46:33.001Z,9.40
2023-02-14T13:49:32.898Z,9.80
2023-02-14T13:52:06.328Z,10.20
2023-02-14T13:54:39.103Z,10.60
2023-02-14T13:57:28.457Z,10.80
2023-02-14T14:00:18.012Z,11.00
2023-02-14T14:02:50.070Z,11.20
2023-02-14T14:05:32.760Z,11.40
2023-02-14T14:08:22.511Z,11.70
2023-02-14T14:10:54.289Z,12.00
2023-02-14T14:13:40.662Z,12.10
2023-02-14T14:16:28.012Z,12.40
2023-02-14T14:19:01.728Z,12.40
2023-02-14T14:21:32.487Z,12.50
2023-02-14T14:24:26.140Z,12.70
2023-02-14T14:27:05.327Z,12.80
2023-02-14T14:29:38.378Z,12.90
2023-02-14T14:32:10.140Z,13.10
2023-02-14T14:34:38.616Z,12.90
2023-02-14T14:37:17.154Z,12.60
2023-02-14T14:40:00.641Z,12.20
2023-02-14T14:42:32.298Z,11.90
2023-02-14T14:45:04.178Z,11.10
2023-02-14T14:47:42.373Z,11.10
2023-02-14T14:50:18.870Z,10.90
2023-02-14T14:52:58.730Z,10.70
2023-02-14T14:55:27.906Z,10.50
2023-02-14T14:58:09.062Z,10.30
2023-02-14T15:00:38.856Z,10.10
2023-02-14T15:03:12.456Z,10.00
2023-02-14T15:05:48.456Z,10.00
2023-02-14T15:08:25.061Z,9.90
2023-02-14T15:11:03.423Z,9.90
2023-02-14T15:13:50.614Z,9.80
2023-02-14T15:16:25.107Z,9.80
2023-02-14T15:19:00.377Z,9.80
2023-02-14T15:21:28.431Z,9.70
2023-02-14T15:23:56.292Z,9.70
2023-02-14T15:26:31.619Z,9.70
2023-02-14T15:29:06.943Z,9.60
2023-02-14T15:31:41.127Z,9.60
2023-02-14T15:34:11.194Z,9.60
2023-02-14T15:36:49.125Z,9.50
2023-02-14T15:39:18.641Z,9.50
2023-02-14T15:41:46.729Z,9.50
2023-02-14T15:44:23.553Z,9.50
2023-02-14T15:46:57.525Z,9.50
2023-02-14T15:49:32.499Z,9.50
2023-02-14T15:52:02.961Z,9.40
2023-02-14T15:54:36.723Z,9.40
2023-02-14T15:57:06.537Z,9.30
2023-02-14T15:59:36.829Z,9.30
2023-02-14T16:02:28.025Z,9.30
2023-02-14T16:05:03.635Z,9.20
2023-02-14T16:07:31.387Z,9.20
2023-02-14T16:10:28.747Z,9.10
2023-02-14T16:13:18.702Z,9.10
2023-02-14T16:15:59.763Z,9.00
2023-02-14T16:18:41.340Z,8.80
2023-02-14T16:21:27.719Z,8.80
2023-02-14T16:24:07.442Z,8.70
2023-02-14T16:26:43.009Z,8.70
2023-02-14T16:29:19.503Z,8.60
2023-02-14T16:34:47.440Z,8.40
2023-02-14T16:37:22.739Z,8.30
2023-02-14T16:39:52.940Z,8.20
2023-02-14T16:42:20.841Z,8.20
2023-02-14T16:44:48.659Z,8.10
2023-02-14T16:47:18.248Z,8.00
2023-02-14T16:49:46.120Z,8.00
2023-02-14T16:52:20.725Z,7.90
2023-02-14T16:54:50.052Z,7.90
2023-02-14T16:57:41.013Z,7.80
2023-02-14T17:00:10.229Z,7.80
2023-02-14T17:02:38.143Z,7.70
2023-02-14T17:05:06.146Z,7.70
2023-02-14T17:07:33.918Z,7.60
2023-02-14T17:10:09.659Z,7.50
2023-02-14T17:12:40.549Z,7.50
2023-02-14T17:15:16.880Z,7.50
2023-02-14T17:17:47.187Z,7.40
2023-02-14T17:20:16.011Z,7.30
2023-02-14T17:22:44.703Z,7.30
2023-02-14T17:25:12.329Z,7.20
2023-02-14T17:27:44.033Z,7.10
2023-02-14T17:30:12.781Z,7.10
2023-02-14T17:32:40.840Z,7.00
2023-02-14T17:35:09.084Z,6.80
2023-02-14T17:37:37.378Z,6.80
2023-02-14T17:40:05.979Z,6.70
2023-02-14T17:42:34.488Z,6.70
2023-02-14T17:45:02.438Z,6.60
2023-02-14T17:47:30.054Z,6.60
2023-02-14T17:49:58.214Z,6.50
2023-02-14T17:52:28.360Z,6.50
2023-02-14T17:54:56.521Z,6.40
2023-02-14T17:57:24.360Z,6.40
2023-02-14T17:59:52.060Z,6.30
2023-02-14T18:02:22.851Z,6.20
2023-02-14T18:04:50.756Z,6.20
2023-02-14T18:07:18.381Z,6.10
2023-02-14T18:09:46.149Z,6.00
2023-02-14T18:12:15.158Z,5.90
2023-02-14T18:14:43.331Z,5.90
2023-02-14T18:17:15.656Z,5.80
2023-02-14T18:19:43.403Z,5.60
2023-02-14T18:22:10.922Z,5.60
2023-02-14T18:24:39.185Z,5.60
2023-02-14T18:27:06.870Z,5.60
2023-02-14T18:29:35.988Z,5.50
2023-02-14T18:32:04.892Z,5.40
2023-02-14T18:34:35.545Z,5.40
2023-02-14T18:37:04.539Z,5.30
2023-02-14T18:39:32.802Z,5.30
2023-02-14T18:42:01.201Z,5.20
2023-02-14T18:44:29.301Z,5.10
2023-02-14T18:46:56.927Z,5.10
2023-02-14T18:49:24.635Z,5.10
2023-02-14T18:51:52.185Z,5.00
2023-02-14T18:54:19.738Z,5.00
2023-02-14T18:59:16.662Z,4.90
2023-02-14T19:01:45.828Z,4.90
2023-02-14T19:04:13.664Z,4.80
2023-02-14T19:06:42.113Z,4.80
2023-02-14T19:09:12.068Z,4.70
2023-02-14T19:11:40.055Z,4.70
2023-02-14T19:14:10.318Z,4.70
2023-02-14T19:16:44.092Z,4.60
2023-02-14T19:19:11.919Z,4.60
2023-02-14T19:21:39.470Z,4.60
2023-02-14T19:24:07.823Z,4.50
2023-02-14T19:26:40.779Z,4.50
2023-02-14T19:29:20.302Z,4.40
2023-02-14T19:31:53.088Z,4.40
2023-02-14T19:34:28.897Z,4.40
2023-02-14T19:37:00.388Z,4.30
2023-02-14T19:39:31.727Z,4.30
2023-02-14T19:42:00.566Z,4.20
2023-02-14T19:44:29.306Z,4.20
2023-02-14T19:47:00.027Z,4.20
2023-02-14T19:49:28.653Z,4.20
2023-02-14T19:51:56.867Z,4.20
2023-02-14T19:54:25.717Z,4.30
2023-02-14T19:56:55.489Z,4.30
2023-02-14T19:59:23.359Z,4.30
2023-02-14T20:01:53.343Z,4.40
2023-02-14T20:04:23.365Z,4.50
2023-02-14T20:06:51.431Z,4.50
2023-02-14T20:09:21.771Z,4.60
2023-02-14T20:11:52.356Z,4.60
2023-02-14T20:14:35.968Z,4.60
2023-02-14T20:17:08.446Z,4.60
2023-02-14T20:19:37.186Z,4.70
2023-02-14T20:22:05.073Z,4.60
2023-02-14T20:24:32.688Z,4.70
2023-02-14T20:27:03.050Z,4.70
2023-02-14T20:29:30.797Z,4.70
2023-02-14T20:32:01.482Z,4.70
2023-02-14T20:34:29.505Z,4.80
2023-02-14T20:36:59.252Z,4.90
2023-02-14T20:39:28.758Z,4.90
2023-02-14T20:41:56.709Z,5.00
2023-02-14T20:44:24.612Z,5.00
2023-02-14T20:46:54.384Z,5.10
2023-02-14T20:49:24.090Z,5.10
2023-02-14T20:51:52.490Z,5.10
2023-02-14T20:54:22.069Z,5.10
2023-02-14T20:56:50.896Z,5.20
2023-02-14T20:59:27.322Z,5.10
2023-02-14T21:01:59.279Z,5.10
2023-02-14T21:04:27.617Z,5.10
2023-02-14T21:06:57.620Z,5.10
2023-02-14T21:09:28.352Z,5.10
2023-02-14T21:11:59.430Z,5.10
2023-02-14T21:14:27.375Z,5.10
2023-02-14T21:16:54.960Z,5.00
2023-02-14T21:19:22.595Z,4.90
2023-02-14T21:21:50.595Z,4.90
2023-02-14T21:24:18.283Z,4.80
2023-02-14T21:26:46.085Z,4.70
2023-02-14T21:29:13.867Z,4.60
2023-02-14T21:31:42.488Z,4.50
2023-02-14T21:34:11.023Z,4.50
2023-02-14T21:36:38.609Z,4.40
2023-02-14T21:39:07.265Z,4.30
2023-02-14T21:41:36.505Z,4.30
2023-02-14T21:44:05.293Z,4.20
2023-02-14T21:46:36.870Z,4.20
2023-02-14T21:49:24.143Z,4.20
2023-02-14T21:51:52.065Z,4.20
2023-02-14T21:54:19.598Z,4.10
2023-02-14T21:56:47.679Z,4.10
2023-02-14T21:59:15.270Z,4.10
2023-02-14T22:01:43.429Z,4.00
2023-02-14T22:04:12.913Z,4.00
2023-02-14T22:06:41.936Z,4.00
2023-02-14T22:09:12.320Z,3.90
2023-02-14T22:11:40.508Z,3.90
2023-02-14T22:14:08.382Z,3.90
2023-02-14T22:16:36.965Z,4.00
2023-02-14T22:19:07.423Z,4.00
2023-02-14T22:21:35.279Z,3.90
2023-02-14T22:24:02.981Z,4.00
2023-02-14T22:26:40.782Z,4.00
2023-02-14T22:29:11.395Z,4.10
2023-02-14T22:31:41.787Z,4.10
2023-02-14T22:34:11.638Z,4.10
2023-02-14T22:36:39.485Z,4.20
2023-02-14T22:39:07.641Z,4.20
2023-02-14T22:41:37.791Z,4.20
2023-02-14T22:44:06.402Z,4.30
2023-02-14T22:46:36.803Z,4.30
2023-02-14T22:49:06.111Z,4.30
2023-02-14T22:51:39.146Z,4.30
2023-02-14T22:54:10.300Z,4.30
2023-02-14T22:56:48.367Z,4.30
2023-02-14T22:59:23.176Z,4.30
2023-02-14T23:01:52.868Z,4.30
2023-02-14T23:04:22.094Z,4.20
2023-02-14T23:06:51.708Z,4.20
2023-02-14T23:09:20.122Z,4.10
2023-02-14T23:11:49.877Z,4.10
2023-02-14T23:14:37.250Z,4.10
2023-02-14T23:17:24.356Z,4.10
2023-02-14T23:20:10.710Z,4.00
2023-02-14T23:22:40.203Z,4.00
2023-02-14T23:25:10.900Z,4.00
2023-02-14T23:27:44.616Z,4.00
2023-02-14T23:30:15.806Z,4.00
2023-02-14T23:32:43.610Z,4.00
2023-02-14T23:35:11.251Z,4.00
2023-02-14T23:37:39.112Z,4.00
2023-02-14T23:40:07.630Z,4.00
2023-02-14T23:42:35.170Z,4.00
2023-02-14T23:45:21.311Z,4.00
2023-02-14T23:47:49.035Z,4.00
2023-02-14T23:50:16.732Z,3.90
2023-02-14T23:52:44.712Z,3.90
2023-02-14T23:55:12.736Z,3.90
2023-02-14T23:57:42.880Z,3.90
